sensor_id;sensor_type;location;lat;lon;timestamp;P1;durP1;ratioP1;P2;durP2;ratioP2
33190;SDS011;19554;42.652;23.364;2023-02-01T00:02:20;7.55;;;5.90;;
33190;SDS011;19554;42.652;23.364;2023-02-01T00:04:46;8.45;;;5.53;;
33190;SDS011;19554;42.652;23.364;2023-02-01T00:07:12;10.38;;;5.85;;
33190;SDS011;19554;42.652;23.364;2023-02-01T00:09:37;9.82;;;5.43;;
33190;SDS011;19554;42.652;23.364;2023-02-01T00:12:03;6.20;;;5.05;;
33190;SDS011;19554;42.652;23.364;2023-02-01T00:14:28;7.63;;;5.47;;
33190;SDS011;19554;42.652;23.364;2023-02-01T00:16:54;9.52;;;5.85;;
33190;SDS011;19554;42.652;23.364;2023-02-01T00:19:20;9.63;;;5.90;;
33190;SDS011;19554;42.652;23.364;2023-02-01T00:21:45;6.55;;;4.93;;
33190;SDS011;19554;42.652;23.364;2023-02-01T00:24:11;9.15;;;5.85;;
33190;SDS011;19554;42.652;23.364;2023-02-01T00:26:37;9.07;;;5.72;;
33190;SDS011;19554;42.652;23.364;2023-02-01T00:29:06;7.10;;;5.40;;
33190;SDS011;19554;42.652;23.364;2023-02-01T00:34:00;8.07;;;6.07;;
33190;SDS011;19554;42.652;23.364;2023-02-01T00:36:26;7.32;;;5.55;;
33190;SDS011;19554;42.652;23.364;2023-02-01T00:38:52;8.60;;;5.90;;
33190;SDS011;19554;42.652;23.364;2023-02-01T00:41:19;9.68;;;5.60;;
33190;SDS011;19554;42.652;23.364;2023-02-01T00:43:46;8.60;;;5.45;;
33190;SDS011;19554;42.652;23.364;2023-02-01T00:46:12;7.55;;;5.35;;
33190;SDS011;19554;42.652;23.364;2023-02-01T00:48:39;6.80;;;4.90;;
33190;SDS011;19554;42.652;23.364;2023-02-01T00:51:06;6.93;;;5.35;;
33190;SDS011;19554;42.652;23.364;2023-02-01T00:53:34;8.75;;;5.43;;
33190;SDS011;19554;42.652;23.364;2023-02-01T00:56:00;6.93;;;4.63;;
33190;SDS011;19554;42.652;23.364;2023-02-01T00:58:25;7.00;;;4.55;;
33190;SDS011;19554;42.652;23.364;2023-02-01T01:01:04;7.38;;;4.78;;
33190;SDS011;19554;42.652;23.364;2023-02-01T01:03:30;6.40;;;4.63;;
33190;SDS011;19554;42.652;23.364;2023-02-01T01:05:58;8.70;;;4.95;;
33190;SDS011;19554;42.652;23.364;2023-02-01T01:08:25;9.45;;;4.78;;
33190;SDS011;19554;42.652;23.364;2023-02-01T01:10:51;7.95;;;5.47;;
33190;SDS011;19554;42.652;23.364;2023-02-01T01:13:16;8.63;;;4.25;;
33190;SDS011;19554;42.652;23.364;2023-02-01T01:15:42;7.57;;;4.75;;
33190;SDS011;19554;42.652;23.364;2023-02-01T01:18:07;7.40;;;4.40;;
33190;SDS011;19554;42.652;23.364;2023-02-01T01:20:36;7.68;;;4.63;;
33190;SDS011;19554;42.652;23.364;2023-02-01T01:23:03;4.90;;;4.22;;
33190;SDS011;19554;42.652;23.364;2023-02-01T01:25:29;9.93;;;4.35;;
33190;SDS011;19554;42.652;23.364;2023-02-01T01:27:54;7.35;;;4.57;;
33190;SDS011;19554;42.652;23.364;2023-02-01T01:30:20;6.35;;;3.67;;
33190;SDS011;19554;42.652;23.364;2023-02-01T01:32:45;13.38;;;4.00;;
33190;SDS011;19554;42.652;23.364;2023-02-01T01:35:11;7.72;;;4.63;;
33190;SDS011;19554;42.652;23.364;2023-02-01T01:37:36;6.20;;;4.32;;
33190;SDS011;19554;42.652;23.364;2023-02-01T01:40:03;7.07;;;3.85;;
33190;SDS011;19554;42.652;23.364;2023-02-01T01:42:29;5.40;;;4.03;;
33190;SDS011;19554;42.652;23.364;2023-02-01T01:47:33;5.88;;;3.80;;
33190;SDS011;19554;42.652;23.364;2023-02-01T01:50:07;5.88;;;3.80;;
33190;SDS011;19554;42.652;23.364;2023-02-01T01:52:35;4.82;;;3.67;;
33190;SDS011;19554;42.652;23.364;2023-02-01T01:55:03;6.00;;;3.80;;
33190;SDS011;19554;42.652;23.364;2023-02-01T01:57:31;5.90;;;3.70;;
33190;SDS011;19554;42.652;23.364;2023-02-01T02:00:03;7.85;;;4.00;;
33190;SDS011;19554;42.652;23.364;2023-02-01T02:02:32;5.97;;;3.30;;
33190;SDS011;19554;42.652;23.364;2023-02-01T02:04:57;6.53;;;4.00;;
33190;SDS011;19554;42.652;23.364;2023-02-01T02:07:25;5.68;;;3.97;;
33190;SDS011;19554;42.652;23.364;2023-02-01T02:09:53;6.97;;;4.20;;
33190;SDS011;19554;42.652;23.364;2023-02-01T02:12:19;6.97;;;3.88;;
33190;SDS011;19554;42.652;23.364;2023-02-01T02:14:45;9.60;;;4.07;;
33190;SDS011;19554;42.652;23.364;2023-02-01T02:36:56;5.03;;;3.90;;
33190;SDS011;19554;42.652;23.364;2023-02-01T02:48:45;8.95;;;3.97;;
33190;SDS011;19554;42.652;23.364;2023-02-01T02:51:25;6.40;;;4.10;;
33190;SDS011;19554;42.652;23.364;2023-02-01T02:54:18;5.85;;;3.67;;
33190;SDS011;19554;42.652;23.364;2023-02-01T02:57:10;6.53;;;3.35;;
33190;SDS011;19554;42.652;23.364;2023-02-01T03:00:02;7.60;;;3.50;;
33190;SDS011;19554;42.652;23.364;2023-02-01T03:02:49;7.75;;;3.28;;
33190;SDS011;19554;42.652;23.364;2023-02-01T03:05:34;6.97;;;3.53;;
33190;SDS011;19554;42.652;23.364;2023-02-01T03:13:23;4.53;;;3.40;;
33190;SDS011;19554;42.652;23.364;2023-02-01T03:18:37;6.55;;;3.20;;
33190;SDS011;19554;42.652;23.364;2023-02-01T03:21:16;5.80;;;2.83;;
33190;SDS011;19554;42.652;23.364;2023-02-01T03:23:57;3.33;;;2.72;;
33190;SDS011;19554;42.652;23.364;2023-02-01T03:26:27;4.85;;;3.30;;
33190;SDS011;19554;42.652;23.364;2023-02-01T03:29:03;5.00;;;2.85;;
33190;SDS011;19554;42.652;23.364;2023-02-01T03:31:33;3.97;;;3.05;;
33190;SDS011;19554;42.652;23.364;2023-02-01T03:33:59;7.18;;;3.65;;
33190;SDS011;19554;42.652;23.364;2023-02-01T03:36:26;6.20;;;3.45;;
33190;SDS011;19554;42.652;23.364;2023-02-01T03:39:00;5.63;;;2.97;;
33190;SDS011;19554;42.652;23.364;2023-02-01T03:41:35;7.95;;;2.80;;
33190;SDS011;19554;42.652;23.364;2023-02-01T03:44:12;4.97;;;2.80;;
33190;SDS011;19554;42.652;23.364;2023-02-01T03:46:48;8.35;;;3.13;;
33190;SDS011;19554;42.652;23.364;2023-02-01T03:49:26;5.60;;;2.70;;
33190;SDS011;19554;42.652;23.364;2023-02-01T03:51:56;5.22;;;3.17;;
33190;SDS011;19554;42.652;23.364;2023-02-01T03:54:24;3.65;;;2.83;;
33190;SDS011;19554;42.652;23.364;2023-02-01T03:56:52;3.78;;;2.85;;
33190;SDS011;19554;42.652;23.364;2023-02-01T03:59:20;5.43;;;2.83;;
33190;SDS011;19554;42.652;23.364;2023-02-01T04:01:46;3.95;;;2.60;;
33190;SDS011;19554;42.652;23.364;2023-02-01T04:04:11;4.30;;;2.60;;
33190;SDS011;19554;42.652;23.364;2023-02-01T04:06:44;6.82;;;2.65;;
33190;SDS011;19554;42.652;23.364;2023-02-01T04:09:11;4.65;;;2.42;;
33190;SDS011;19554;42.652;23.364;2023-02-01T04:11:36;6.38;;;2.30;;
33190;SDS011;19554;42.652;23.364;2023-02-01T04:14:01;9.27;;;2.88;;
33190;SDS011;19554;42.652;23.364;2023-02-01T04:16:29;5.90;;;3.13;;
33190;SDS011;19554;42.652;23.364;2023-02-01T04:18:55;4.78;;;3.10;;
33190;SDS011;19554;42.652;23.364;2023-02-01T04:21:22;4.68;;;2.83;;
33190;SDS011;19554;42.652;23.364;2023-02-01T04:23:47;4.32;;;2.90;;
33190;SDS011;19554;42.652;23.364;2023-02-01T04:26:13;7.25;;;2.90;;
33190;SDS011;19554;42.652;23.364;2023-02-01T04:28:38;6.10;;;3.03;;
33190;SDS011;19554;42.652;23.364;2023-02-01T04:31:04;5.55;;;3.67;;
33190;SDS011;19554;42.652;23.364;2023-02-01T04:33:29;8.73;;;3.40;;
33190;SDS011;19554;42.652;23.364;2023-02-01T04:35:55;5.53;;;3.70;;
33190;SDS011;19554;42.652;23.364;2023-02-01T04:38:20;8.43;;;3.47;;
33190;SDS011;19554;42.652;23.364;2023-02-01T04:40:48;7.78;;;3.88;;
33190;SDS011;19554;42.652;23.364;2023-02-01T04:43:14;8.90;;;4.30;;
33190;SDS011;19554;42.652;23.364;2023-02-01T04:45:40;9.45;;;4.05;;
33190;SDS011;19554;42.652;23.364;2023-02-01T04:48:05;6.35;;;4.00;;
33190;SDS011;19554;42.652;23.364;2023-02-01T04:50:31;5.53;;;3.70;;
33190;SDS011;19554;42.652;23.364;2023-02-01T04:52:56;8.85;;;4.53;;
33190;SDS011;19554;42.652;23.364;2023-02-01T04:55:21;8.88;;;4.22;;
33190;SDS011;19554;42.652;23.364;2023-02-01T04:57:47;9.43;;;4.57;;
33190;SDS011;19554;42.652;23.364;2023-02-01T05:00:12;8.63;;;4.45;;
33190;SDS011;19554;42.652;23.364;2023-02-01T05:02:38;6.32;;;4.68;;
33190;SDS011;19554;42.652;23.364;2023-02-01T05:05:04;6.88;;;4.65;;
33190;SDS011;19554;42.652;23.364;2023-02-01T05:07:29;6.50;;;4.68;;
33190;SDS011;19554;42.652;23.364;2023-02-01T05:09:55;7.30;;;4.90;;
33190;SDS011;19554;42.652;23.364;2023-02-01T05:12:20;11.75;;;4.68;;
33190;SDS011;19554;42.652;23.364;2023-02-01T05:15:04;5.35;;;4.10;;
33190;SDS011;19554;42.652;23.364;2023-02-01T05:17:30;6.93;;;4.32;;
33190;SDS011;19554;42.652;23.364;2023-02-01T05:19:55;6.22;;;4.75;;
33190;SDS011;19554;42.652;23.364;2023-02-01T05:22:21;8.77;;;4.43;;
33190;SDS011;19554;42.652;23.364;2023-02-01T05:24:46;8.10;;;4.63;;
33190;SDS011;19554;42.652;23.364;2023-02-01T05:27:11;8.88;;;5.10;;
33190;SDS011;19554;42.652;23.364;2023-02-01T05:29:37;8.68;;;5.13;;
33190;SDS011;19554;42.652;23.364;2023-02-01T05:32:02;11.52;;;4.70;;
33190;SDS011;19554;42.652;23.364;2023-02-01T05:34:28;10.25;;;4.85;;
33190;SDS011;19554;42.652;23.364;2023-02-01T05:36:53;11.88;;;5.18;;
33190;SDS011;19554;42.652;23.364;2023-02-01T05:39:18;9.65;;;5.07;;
33190;SDS011;19554;42.652;23.364;2023-02-01T05:41:44;10.48;;;5.20;;
33190;SDS011;19554;42.652;23.364;2023-02-01T05:44:10;11.43;;;5.68;;
33190;SDS011;19554;42.652;23.364;2023-02-01T05:46:35;6.88;;;4.97;;
33190;SDS011;19554;42.652;23.364;2023-02-01T05:49:01;7.80;;;4.85;;
33190;SDS011;19554;42.652;23.364;2023-02-01T05:51:26;14.55;;;6.65;;
33190;SDS011;19554;42.652;23.364;2023-02-01T05:53:52;8.35;;;5.18;;
33190;SDS011;19554;42.652;23.364;2023-02-01T05:56:17;13.50;;;6.22;;
33190;SDS011;19554;42.652;23.364;2023-02-01T05:58:42;11.18;;;5.13;;
33190;SDS011;19554;42.652;23.364;2023-02-01T06:01:08;10.15;;;5.85;;
33190;SDS011;19554;42.652;23.364;2023-02-01T06:03:33;11.63;;;6.18;;
33190;SDS011;19554;42.652;23.364;2023-02-01T06:05:59;9.77;;;5.80;;
33190;SDS011;19554;42.652;23.364;2023-02-01T06:08:26;11.52;;;5.57;;
33190;SDS011;19554;42.652;23.364;2023-02-01T06:10:59;13.48;;;5.32;;
33190;SDS011;19554;42.652;23.364;2023-02-01T06:13:26;7.07;;;4.97;;
33190;SDS011;19554;42.652;23.364;2023-02-01T06:15:51;15.90;;;4.88;;
33190;SDS011;19554;42.652;23.364;2023-02-01T06:18:17;13.90;;;5.60;;
33190;SDS011;19554;42.652;23.364;2023-02-01T06:20:43;8.95;;;4.82;;
33190;SDS011;19554;42.652;23.364;2023-02-01T06:23:08;14.00;;;5.18;;
33190;SDS011;19554;42.652;23.364;2023-02-01T06:25:33;10.95;;;4.82;;
33190;SDS011;19554;42.652;23.364;2023-02-01T06:28:02;8.70;;;5.00;;
33190;SDS011;19554;42.652;23.364;2023-02-01T06:30:30;10.02;;;4.93;;
33190;SDS011;19554;42.652;23.364;2023-02-01T06:32:56;8.43;;;4.80;;
33190;SDS011;19554;42.652;23.364;2023-02-01T06:35:21;13.57;;;5.35;;
33190;SDS011;19554;42.652;23.364;2023-02-01T06:37:47;10.40;;;5.18;;
33190;SDS011;19554;42.652;23.364;2023-02-01T06:40:12;9.98;;;5.03;;
33190;SDS011;19554;42.652;23.364;2023-02-01T06:42:38;7.10;;;4.65;;
33190;SDS011;19554;42.652;23.364;2023-02-01T06:45:03;5.45;;;3.97;;
33190;SDS011;19554;42.652;23.364;2023-02-01T06:47:29;8.65;;;5.15;;
33190;SDS011;19554;42.652;23.364;2023-02-01T06:49:54;9.63;;;4.78;;
33190;SDS011;19554;42.652;23.364;2023-02-01T06:52:20;14.10;;;4.68;;
33190;SDS011;19554;42.652;23.364;2023-02-01T06:54:45;10.35;;;4.55;;
33190;SDS011;19554;42.652;23.364;2023-02-01T06:57:10;8.10;;;4.40;;
33190;SDS011;19554;42.652;23.364;2023-02-01T06:59:36;9.60;;;4.38;;
33190;SDS011;19554;42.652;23.364;2023-02-01T07:02:02;8.95;;;4.93;;
33190;SDS011;19554;42.652;23.364;2023-02-01T07:04:27;9.80;;;4.75;;
33190;SDS011;19554;42.652;23.364;2023-02-01T07:06:53;11.80;;;4.45;;
33190;SDS011;19554;42.652;23.364;2023-02-01T07:09:18;9.32;;;4.35;;
33190;SDS011;19554;42.652;23.364;2023-02-01T07:11:43;9.15;;;3.35;;
33190;SDS011;19554;42.652;23.364;2023-02-01T07:14:12;8.68;;;3.50;;
33190;SDS011;19554;42.652;23.364;2023-02-01T07:16:37;10.13;;;3.88;;
33190;SDS011;19554;42.652;23.364;2023-02-01T07:19:03;7.90;;;3.70;;
33190;SDS011;19554;42.652;23.364;2023-02-01T07:21:28;16.17;;;5.35;;
33190;SDS011;19554;42.652;23.364;2023-02-01T07:23:54;10.70;;;4.82;;
33190;SDS011;19554;42.652;23.364;2023-02-01T07:26:20;9.95;;;4.53;;
33190;SDS011;19554;42.652;23.364;2023-02-01T07:28:45;9.85;;;4.28;;
33190;SDS011;19554;42.652;23.364;2023-02-01T07:31:15;10.98;;;4.90;;
33190;SDS011;19554;42.652;23.364;2023-02-01T07:33:46;10.32;;;4.35;;
33190;SDS011;19554;42.652;23.364;2023-02-01T07:36:18;12.52;;;4.50;;
33190;SDS011;19554;42.652;23.364;2023-02-01T07:38:44;13.63;;;6.13;;
33190;SDS011;19554;42.652;23.364;2023-02-01T07:41:11;9.18;;;4.90;;
33190;SDS011;19554;42.652;23.364;2023-02-01T07:43:37;15.88;;;5.20;;
33190;SDS011;19554;42.652;23.364;2023-02-01T07:46:03;10.20;;;3.83;;
33190;SDS011;19554;42.652;23.364;2023-02-01T07:48:29;12.23;;;4.00;;
33190;SDS011;19554;42.652;23.364;2023-02-01T07:50:56;14.85;;;4.40;;
33190;SDS011;19554;42.652;23.364;2023-02-01T07:53:26;8.77;;;4.03;;
33190;SDS011;19554;42.652;23.364;2023-02-01T07:55:53;12.48;;;4.78;;
33190;SDS011;19554;42.652;23.364;2023-02-01T07:58:20;12.73;;;3.83;;
33190;SDS011;19554;42.652;23.364;2023-02-01T08:00:46;9.05;;;3.92;;
33190;SDS011;19554;42.652;23.364;2023-02-01T08:03:30;9.60;;;3.45;;
33190;SDS011;19554;42.652;23.364;2023-02-01T08:05:56;7.78;;;3.70;;
33190;SDS011;19554;42.652;23.364;2023-02-01T08:08:21;10.35;;;4.50;;
33190;SDS011;19554;42.652;23.364;2023-02-01T08:10:47;13.55;;;5.03;;
33190;SDS011;19554;42.652;23.364;2023-02-01T08:13:13;8.82;;;3.90;;
33190;SDS011;19554;42.652;23.364;2023-02-01T08:15:38;8.80;;;3.85;;
33190;SDS011;19554;42.652;23.364;2023-02-01T08:18:04;12.55;;;5.72;;
33190;SDS011;19554;42.652;23.364;2023-02-01T08:20:29;15.63;;;4.07;;
33190;SDS011;19554;42.652;23.364;2023-02-01T08:22:55;7.00;;;3.78;;
33190;SDS011;19554;42.652;23.364;2023-02-01T08:25:20;9.32;;;3.83;;
33190;SDS011;19554;42.652;23.364;2023-02-01T08:27:47;10.40;;;4.20;;
33190;SDS011;19554;42.652;23.364;2023-02-01T08:30:12;9.93;;;3.25;;
33190;SDS011;19554;42.652;23.364;2023-02-01T08:32:38;6.93;;;2.72;;
33190;SDS011;19554;42.652;23.364;2023-02-01T08:35:04;7.97;;;2.50;;
33190;SDS011;19554;42.652;23.364;2023-02-01T08:37:30;9.90;;;3.22;;
33190;SDS011;19554;42.652;23.364;2023-02-01T08:39:55;9.32;;;3.55;;
33190;SDS011;19554;42.652;23.364;2023-02-01T08:42:21;12.45;;;3.20;;
33190;SDS011;19554;42.652;23.364;2023-02-01T08:45:05;9.82;;;3.53;;
33190;SDS011;19554;42.652;23.364;2023-02-01T08:47:32;10.23;;;4.07;;
33190;SDS011;19554;42.652;23.364;2023-02-01T08:49:58;6.10;;;3.28;;
33190;SDS011;19554;42.652;23.364;2023-02-01T08:52:24;4.85;;;3.40;;
33190;SDS011;19554;42.652;23.364;2023-02-01T08:54:49;12.98;;;3.95;;
33190;SDS011;19554;42.652;23.364;2023-02-01T08:57:14;10.77;;;4.13;;
33190;SDS011;19554;42.652;23.364;2023-02-01T08:59:40;8.63;;;3.75;;
33190;SDS011;19554;42.652;23.364;2023-02-01T09:02:05;8.02;;;3.85;;
33190;SDS011;19554;42.652;23.364;2023-02-01T09:04:31;11.48;;;3.60;;
33190;SDS011;19554;42.652;23.364;2023-02-01T09:06:56;10.80;;;3.92;;
33190;SDS011;19554;42.652;23.364;2023-02-01T09:09:22;10.02;;;4.43;;
33190;SDS011;19554;42.652;23.364;2023-02-01T09:11:47;12.75;;;3.65;;
33190;SDS011;19554;42.652;23.364;2023-02-01T09:14:15;6.50;;;3.17;;
33190;SDS011;19554;42.652;23.364;2023-02-01T09:16:40;10.77;;;3.15;;
33190;SDS011;19554;42.652;23.364;2023-02-01T09:19:06;14.38;;;3.45;;
33190;SDS011;19554;42.652;23.364;2023-02-01T09:21:31;5.80;;;2.88;;
33190;SDS011;19554;42.652;23.364;2023-02-01T09:23:57;5.13;;;2.92;;
33190;SDS011;19554;42.652;23.364;2023-02-01T09:26:22;7.70;;;2.60;;
33190;SDS011;19554;42.652;23.364;2023-02-01T09:28:48;6.78;;;2.42;;
33190;SDS011;19554;42.652;23.364;2023-02-01T09:31:13;4.22;;;2.58;;
33190;SDS011;19554;42.652;23.364;2023-02-01T09:33:38;8.15;;;2.97;;
33190;SDS011;19554;42.652;23.364;2023-02-01T09:36:05;6.30;;;3.08;;
33190;SDS011;19554;42.652;23.364;2023-02-01T09:38:30;8.65;;;3.28;;
33190;SDS011;19554;42.652;23.364;2023-02-01T09:40:57;9.43;;;3.25;;
33190;SDS011;19554;42.652;23.364;2023-02-01T09:43:34;4.38;;;2.42;;
33190;SDS011;19554;42.652;23.364;2023-02-01T09:48:55;8.23;;;2.72;;
33190;SDS011;19554;42.652;23.364;2023-02-01T09:51:24;6.30;;;2.83;;
33190;SDS011;19554;42.652;23.364;2023-02-01T09:53:59;11.13;;;2.40;;
33190;SDS011;19554;42.652;23.364;2023-02-01T09:56:33;4.25;;;2.83;;
33190;SDS011;19554;42.652;23.364;2023-02-01T09:59:04;7.38;;;2.55;;
33190;SDS011;19554;42.652;23.364;2023-02-01T10:01:36;17.25;;;3.42;;
33190;SDS011;19554;42.652;23.364;2023-02-01T10:04:06;4.65;;;2.42;;
33190;SDS011;19554;42.652;23.364;2023-02-01T10:09:12;6.85;;;2.40;;
33190;SDS011;19554;42.652;23.364;2023-02-01T10:16:56;7.13;;;2.83;;
33190;SDS011;19554;42.652;23.364;2023-02-01T10:22:14;9.70;;;2.75;;
33190;SDS011;19554;42.652;23.364;2023-02-01T10:27:33;7.55;;;2.58;;
33190;SDS011;19554;42.652;23.364;2023-02-01T10:30:09;7.95;;;3.13;;
33190;SDS011;19554;42.652;23.364;2023-02-01T10:32:43;7.22;;;2.50;;
33190;SDS011;19554;42.652;23.364;2023-02-01T10:35:12;6.80;;;3.08;;
33190;SDS011;19554;42.652;23.364;2023-02-01T10:37:40;5.78;;;2.13;;
33190;SDS011;19554;42.652;23.364;2023-02-01T10:42:46;5.18;;;2.50;;
33190;SDS011;19554;42.652;23.364;2023-02-01T10:45:15;5.95;;;2.47;;
33190;SDS011;19554;42.652;23.364;2023-02-01T10:50:15;6.07;;;2.00;;
33190;SDS011;19554;42.652;23.364;2023-02-01T10:56:13;11.27;;;2.40;;
33190;SDS011;19554;42.652;23.364;2023-02-01T10:58:45;5.47;;;2.38;;
33190;SDS011;19554;42.652;23.364;2023-02-01T11:01:19;7.47;;;3.10;;
33190;SDS011;19554;42.652;23.364;2023-02-01T11:04:06;7.20;;;2.55;;
33190;SDS011;19554;42.652;23.364;2023-02-01T11:06:39;4.90;;;2.30;;
33190;SDS011;19554;42.652;23.364;2023-02-01T11:11:32;4.68;;;2.50;;
33190;SDS011;19554;42.652;23.364;2023-02-01T11:14:02;6.13;;;2.70;;
33190;SDS011;19554;42.652;23.364;2023-02-01T11:16:39;4.47;;;2.40;;
33190;SDS011;19554;42.652;23.364;2023-02-01T11:19:05;3.80;;;2.33;;
33190;SDS011;19554;42.652;23.364;2023-02-01T11:21:34;4.07;;;1.90;;
33190;SDS011;19554;42.652;23.364;2023-02-01T11:24:03;6.65;;;2.50;;
33190;SDS011;19554;42.652;23.364;2023-02-01T11:26:30;5.77;;;2.23;;
33190;SDS011;19554;42.652;23.364;2023-02-01T11:28:59;5.38;;;2.10;;
33190;SDS011;19554;42.652;23.364;2023-02-01T11:31:30;6.53;;;2.17;;
33190;SDS011;19554;42.652;23.364;2023-02-01T11:33:59;6.60;;;2.10;;
33190;SDS011;19554;42.652;23.364;2023-02-01T11:36:31;3.95;;;2.10;;
33190;SDS011;19554;42.652;23.364;2023-02-01T11:39:09;7.97;;;2.00;;
33190;SDS011;19554;42.652;23.364;2023-02-01T11:46:56;4.45;;;2.63;;
33190;SDS011;19554;42.652;23.364;2023-02-01T11:49:37;4.53;;;2.10;;
33190;SDS011;19554;42.652;23.364;2023-02-01T11:52:15;7.97;;;2.40;;
33190;SDS011;19554;42.652;23.364;2023-02-01T12:09:32;3.80;;;2.10;;
33190;SDS011;19554;42.652;23.364;2023-02-01T12:28:56;5.68;;;2.70;;
33190;SDS011;19554;42.652;23.364;2023-02-01T12:44:50;5.70;;;2.35;;
33190;SDS011;19554;42.652;23.364;2023-02-01T12:47:32;7.90;;;3.22;;
33190;SDS011;19554;42.652;23.364;2023-02-01T12:52:46;3.08;;;2.15;;
33190;SDS011;19554;42.652;23.364;2023-02-01T12:58:22;10.85;;;3.15;;
33190;SDS011;19554;42.652;23.364;2023-02-01T13:00:58;8.10;;;2.72;;
33190;SDS011;19554;42.652;23.364;2023-02-01T13:03:44;6.05;;;2.25;;
33190;SDS011;19554;42.652;23.364;2023-02-01T13:09:37;4.00;;;2.30;;
33190;SDS011;19554;42.652;23.364;2023-02-01T13:12:17;3.95;;;2.10;;
33190;SDS011;19554;42.652;23.364;2023-02-01T13:14:49;5.43;;;2.28;;
33190;SDS011;19554;42.652;23.364;2023-02-01T13:17:21;3.47;;;2.10;;
33190;SDS011;19554;42.652;23.364;2023-02-01T13:22:32;6.38;;;2.10;;
33190;SDS011;19554;42.652;23.364;2023-02-01T13:25:03;6.28;;;1.60;;
33190;SDS011;19554;42.652;23.364;2023-02-01T13:27:37;4.28;;;1.70;;
33190;SDS011;19554;42.652;23.364;2023-02-01T13:32:40;4.23;;;1.73;;
33190;SDS011;19554;42.652;23.364;2023-02-01T13:40:46;2.65;;;1.85;;
33190;SDS011;19554;42.652;23.364;2023-02-01T13:43:25;2.80;;;1.70;;
33190;SDS011;19554;42.652;23.364;2023-02-01T13:45:54;4.90;;;1.98;;
33190;SDS011;19554;42.652;23.364;2023-02-01T13:48:33;4.53;;;1.70;;
33190;SDS011;19554;42.652;23.364;2023-02-01T13:51:05;4.50;;;1.65;;
33190;SDS011;19554;42.652;23.364;2023-02-01T13:53:32;6.85;;;2.10;;
33190;SDS011;19554;42.652;23.364;2023-02-01T13:56:10;2.78;;;1.70;;
33190;SDS011;19554;42.652;23.364;2023-02-01T13:58:40;3.08;;;1.88;;
33190;SDS011;19554;42.652;23.364;2023-02-01T14:03:51;6.50;;;2.60;;
33190;SDS011;19554;42.652;23.364;2023-02-01T14:11:36;3.05;;;1.98;;
33190;SDS011;19554;42.652;23.364;2023-02-01T14:14:46;3.28;;;1.80;;
33190;SDS011;19554;42.652;23.364;2023-02-01T14:19:24;3.03;;;1.90;;
33190;SDS011;19554;42.652;23.364;2023-02-01T14:21:52;3.95;;;2.00;;
33190;SDS011;19554;42.652;23.364;2023-02-01T14:24:24;3.08;;;1.83;;
33190;SDS011;19554;42.652;23.364;2023-02-01T14:26:52;5.35;;;2.10;;
33190;SDS011;19554;42.652;23.364;2023-02-01T14:29:21;3.63;;;1.90;;
33190;SDS011;19554;42.652;23.364;2023-02-01T14:37:02;6.53;;;3.25;;
33190;SDS011;19554;42.652;23.364;2023-02-01T14:39:34;5.97;;;3.00;;
33190;SDS011;19554;42.652;23.364;2023-02-01T14:42:15;5.78;;;2.45;;
33190;SDS011;19554;42.652;23.364;2023-02-01T14:44:49;5.85;;;2.00;;
33190;SDS011;19554;42.652;23.364;2023-02-01T14:52:19;6.72;;;2.47;;
33190;SDS011;19554;42.652;23.364;2023-02-01T14:54:49;4.25;;;2.25;;
33190;SDS011;19554;42.652;23.364;2023-02-01T14:57:19;4.55;;;2.33;;
33190;SDS011;19554;42.652;23.364;2023-02-01T14:59:48;4.30;;;2.42;;
33190;SDS011;19554;42.652;23.364;2023-02-01T15:04:46;7.53;;;2.40;;
33190;SDS011;19554;42.652;23.364;2023-02-01T15:07:19;3.17;;;2.13;;
33190;SDS011;19554;42.652;23.364;2023-02-01T15:09:47;6.97;;;3.35;;
33190;SDS011;19554;42.652;23.364;2023-02-01T15:12:17;5.32;;;3.20;;
33190;SDS011;19554;42.652;23.364;2023-02-01T15:17:39;4.47;;;2.67;;
33190;SDS011;19554;42.652;23.364;2023-02-01T15:22:39;4.45;;;2.90;;
33190;SDS011;19554;42.652;23.364;2023-02-01T15:25:04;5.55;;;2.88;;
33190;SDS011;19554;42.652;23.364;2023-02-01T15:27:31;5.57;;;3.17;;
33190;SDS011;19554;42.652;23.364;2023-02-01T15:30:08;6.80;;;2.60;;
33190;SDS011;19554;42.652;23.364;2023-02-01T15:32:42;6.63;;;2.72;;
33190;SDS011;19554;42.652;23.364;2023-02-01T15:43:27;8.63;;;3.70;;
33190;SDS011;19554;42.652;23.364;2023-02-01T15:46:01;7.00;;;3.65;;
33190;SDS011;19554;42.652;23.364;2023-02-01T15:48:49;6.80;;;3.38;;
33190;SDS011;19554;42.652;23.364;2023-02-01T15:51:17;5.75;;;2.53;;
33190;SDS011;19554;42.652;23.364;2023-02-01T15:53:50;4.68;;;3.08;;
33190;SDS011;19554;42.652;23.364;2023-02-01T15:56:37;3.67;;;2.53;;
33190;SDS011;19554;42.652;23.364;2023-02-01T15:59:06;3.92;;;2.10;;
33190;SDS011;19554;42.652;23.364;2023-02-01T16:01:40;7.53;;;2.45;;
33190;SDS011;19554;42.652;23.364;2023-02-01T16:04:20;5.03;;;2.13;;
33190;SDS011;19554;42.652;23.364;2023-02-01T16:06:47;3.67;;;2.08;;
33190;SDS011;19554;42.652;23.364;2023-02-01T16:09:16;5.35;;;2.38;;
33190;SDS011;19554;42.652;23.364;2023-02-01T16:11:59;5.60;;;2.72;;
33190;SDS011;19554;42.652;23.364;2023-02-01T16:14:26;8.85;;;2.65;;
33190;SDS011;19554;42.652;23.364;2023-02-01T16:16:53;4.45;;;2.50;;
33190;SDS011;19554;42.652;23.364;2023-02-01T16:19:20;5.75;;;2.67;;
33190;SDS011;19554;42.652;23.364;2023-02-01T16:21:46;8.18;;;2.90;;
33190;SDS011;19554;42.652;23.364;2023-02-01T16:24:11;4.63;;;2.40;;
33190;SDS011;19554;42.652;23.364;2023-02-01T16:26:37;7.97;;;2.88;;
33190;SDS011;19554;42.652;23.364;2023-02-01T16:29:03;5.05;;;2.33;;
33190;SDS011;19554;42.652;23.364;2023-02-01T16:31:32;4.97;;;2.30;;
33190;SDS011;19554;42.652;23.364;2023-02-01T16:34:00;7.20;;;2.15;;
33190;SDS011;19554;42.652;23.364;2023-02-01T16:36:25;5.18;;;2.30;;
33190;SDS011;19554;42.652;23.364;2023-02-01T16:38:52;3.42;;;2.30;;
33190;SDS011;19554;42.652;23.364;2023-02-01T16:41:19;4.28;;;2.40;;
33190;SDS011;19554;42.652;23.364;2023-02-01T16:43:52;7.63;;;2.70;;
33190;SDS011;19554;42.652;23.364;2023-02-01T16:48:51;7.05;;;2.70;;
33190;SDS011;19554;42.652;23.364;2023-02-01T16:51:19;5.95;;;2.83;;
33190;SDS011;19554;42.652;23.364;2023-02-01T16:53:45;9.90;;;3.63;;
33190;SDS011;19554;42.652;23.364;2023-02-01T16:56:14;7.88;;;3.45;;
33190;SDS011;19554;42.652;23.364;2023-02-01T16:58:44;5.90;;;2.78;;
33190;SDS011;19554;42.652;23.364;2023-02-01T17:01:11;6.20;;;2.85;;
33190;SDS011;19554;42.652;23.364;2023-02-01T17:03:38;7.55;;;2.88;;
33190;SDS011;19554;42.652;23.364;2023-02-01T17:06:04;4.75;;;2.78;;
33190;SDS011;19554;42.652;23.364;2023-02-01T17:08:33;7.20;;;3.35;;
33190;SDS011;19554;42.652;23.364;2023-02-01T17:11:01;6.85;;;3.00;;
33190;SDS011;19554;42.652;23.364;2023-02-01T17:13:27;7.90;;;3.38;;
33190;SDS011;19554;42.652;23.364;2023-02-01T17:15:54;6.95;;;3.15;;
33190;SDS011;19554;42.652;23.364;2023-02-01T17:18:21;8.00;;;3.55;;
33190;SDS011;19554;42.652;23.364;2023-02-01T17:20:47;8.38;;;3.38;;
33190;SDS011;19554;42.652;23.364;2023-02-01T17:23:13;6.90;;;2.90;;
33190;SDS011;19554;42.652;23.364;2023-02-01T17:25:39;8.55;;;2.97;;
33190;SDS011;19554;42.652;23.364;2023-02-01T17:28:06;7.32;;;3.13;;
33190;SDS011;19554;42.652;23.364;2023-02-01T17:30:31;5.53;;;2.95;;
33190;SDS011;19554;42.652;23.364;2023-02-01T17:32:57;7.10;;;3.45;;
33190;SDS011;19554;42.652;23.364;2023-02-01T17:35:26;8.85;;;3.00;;
33190;SDS011;19554;42.652;23.364;2023-02-01T17:37:53;7.60;;;3.30;;
33190;SDS011;19554;42.652;23.364;2023-02-01T17:40:19;6.03;;;3.40;;
33190;SDS011;19554;42.652;23.364;2023-02-01T17:42:44;8.13;;;3.50;;